Time;durP1;ratioP1;P1;durP2;ratioP2;P2;SDS_P1;SDS_P2;PMS_P1;PMS_P2;Temp;Humidity;BMP_temperature;BMP_pressure;BME280_temperature;BME280_humidity;BME280_pressure;Samples;Min_cycle;Max_cycle;Signal;HPM_P1;HPM_P2
2024/03/08 00:01:26;;;;;;;27.25;13.25;;;6.20;99.90;;;;;;4154510;28;20437;-65
2024/03/08 00:03:28;;;;;;;26.90;13.20;;;6.20;99.90;;;;;;4155501;28;20048;-65
2024/03/08 00:05:29;;;;;;;24.02;13.35;;;6.10;99.90;;;;;;4147287;28;20034;-65
2024/03/08 00:07:30;;;;;;;22.33;12.85;;;6.00;99.90;;;;;;4156552;28;24497;-65
2024/03/08 00:09:30;;;;;;;22.98;12.90;;;6.10;99.90;;;;;;4157768;28;20053;-65
2024/03/08 00:11:31;;;;;;;20.27;12.50;;;6.10;99.90;;;;;;4153113;28;20038;-65
2024/03/08 00:13:31;;;;;;;22.23;13.18;;;6.10;99.90;;;;;;4152196;28;20429;-65
2024/03/08 00:15:32;;;;;;;20.98;12.20;;;6.10;99.90;;;;;;4149919;28;20053;-65
2024/03/08 00:17:32;;;;;;;19.67;11.52;;;6.20;99.90;;;;;;4153670;28;20048;-65
2024/03/08 00:19:33;;;;;;;20.48;12.45;;;6.20;99.90;;;;;;4151800;28;20030;-66
2024/03/08 00:21:34;;;;;;;19.73;12.88;;;6.20;99.90;;;;;;4148855;28;20034;-65
2024/03/08 00:23:35;;;;;;;22.42;11.68;;;6.10;99.90;;;;;;4151292;28;20095;-65
2024/03/08 00:25:35;;;;;;;21.85;12.90;;;6.10;99.90;;;;;;4150117;28;20034;-65
2024/03/08 00:27:36;;;;;;;20.10;12.77;;;6.10;99.90;;;;;;4153577;28;20379;-66
2024/03/08 00:29:38;;;;;;;18.67;11.68;;;6.10;99.90;;;;;;4153016;28;20412;-66
2024/03/08 00:31:39;;;;;;;20.95;11.65;;;6.10;99.90;;;;;;4150530;28;20080;-65
2024/03/08 00:33:39;;;;;;;20.55;12.38;;;6.00;99.90;;;;;;4154560;28;20029;-65
2024/03/08 00:35:40;;;;;;;19.35;12.00;;;5.90;99.90;;;;;;4152313;28;20526;-65
2024/03/08 00:37:46;;;;;;;21.75;12.52;;;5.80;99.90;;;;;;4154566;28;20053;-66
2024/03/08 00:39:49;;;;;;;20.67;11.90;;;5.60;99.90;;;;;;4154232;28;20379;-65
2024/03/08 00:41:49;;;;;;;;;;;5.50;99.90;;;;;;4153501;28;20049;-65
2024/03/08 00:43:50;;;;;;;21.75;12.48;;;5.50;99.90;;;;;;4147431;28;20044;-65
2024/03/08 00:45:50;;;;;;;18.88;12.32;;;5.40;99.90;;;;;;4149876;28;20038;-65
2024/03/08 00:47:51;;;;;;;19.77;12.30;;;5.40;99.90;;;;;;4157140;28;20077;-65
2024/03/08 00:49:53;;;;;;;24.55;13.18;;;5.40;99.90;;;;;;4153800;28;20037;-65
2024/03/08 00:51:53;;;;;;;19.95;12.50;;;5.30;99.90;;;;;;4146557;28;20633;-60
2024/03/08 00:53:54;;;;;;;22.20;12.52;;;5.20;99.90;;;;;;4146654;28;20034;-62
2024/03/08 00:55:54;;;;;;;22.50;11.88;;;5.20;99.90;;;;;;4156024;28;20041;-62
2024/03/08 00:57:55;;;;;;;22.00;12.90;;;5.10;99.90;;;;;;4152144;28;20108;-62
2024/03/08 00:59:56;;;;;;;18.92;12.45;;;5.00;99.90;;;;;;4148486;28;20489;-62
2024/03/08 01:01:57;;;;;;;20.92;12.65;;;5.00;99.90;;;;;;4152496;28;20041;-62
2024/03/08 01:03:58;;;;;;;22.45;13.07;;;4.90;99.90;;;;;;4150442;28;20508;-62
2024/03/08 01:06:01;;;;;;;23.95;13.07;;;4.80;99.90;;;;;;4144707;28;20417;-62
2024/03/08 01:08:03;;;;;;;23.70;12.88;;;4.80;99.90;;;;;;4144412;28;20463;-62
2024/03/08 01:10:04;;;;;;;20.98;13.60;;;4.80;99.90;;;;;;4129559;28;20431;-64
2024/03/08 01:12:07;;;;;;;24.92;14.60;;;4.70;99.90;;;;;;4138003;28;20062;-63
2024/03/08 01:14:07;;;;;;;22.45;13.10;;;4.70;99.90;;;;;;4143272;28;20026;-62
2024/03/08 01:16:08;;;;;;;22.23;12.98;;;4.80;99.90;;;;;;4146380;28;20041;-62
2024/03/08 01:18:09;;;;;;;20.38;12.85;;;4.80;99.90;;;;;;4155625;28;20034;-62
2024/03/08 01:20:12;;;;;;;24.95;13.55;;;4.80;99.90;;;;;;4154125;28;20044;-63
2024/03/08 01:22:13;;;;;;;25.52;13.90;;;4.70;99.90;;;;;;4156633;28;20041;-62
2024/03/08 01:24:13;;;;;;;22.33;13.30;;;4.70;99.90;;;;;;4152599;28;20037;-63
2024/03/08 01:26:14;;;;;;;22.40;14.10;;;4.70;99.90;;;;;;4147393;28;20042;-62
2024/03/08 01:28:15;;;;;;;23.05;14.70;;;4.70;99.90;;;;;;4149746;28;20104;-62
2024/03/08 01:30:17;;;;;;;21.52;12.93;;;4.70;99.90;;;;;;4134542;28;20077;-62
2024/03/08 01:32:19;;;;;;;22.57;14.07;;;4.70;99.90;;;;;;4136712;28;20092;-62
2024/03/08 01:34:19;;;;;;;24.15;13.65;;;4.60;99.90;;;;;;4128286;28;20578;-62
2024/03/08 01:36:20;;;;;;;21.38;14.00;;;4.60;99.90;;;;;;4131355;28;20033;-62
2024/03/08 01:38:21;;;;;;;22.83;13.52;;;4.60;99.90;;;;;;4148280;28;20118;-62
2024/03/08 01:40:22;;;;;;;21.02;12.90;;;4.50;99.90;;;;;;4149388;28;20033;-62
2024/03/08 01:42:23;;;;;;;25.10;13.73;;;4.60;99.90;;;;;;4154393;28;20061;-62
2024/03/08 01:44:23;;;;;;;26.25;14.32;;;4.50;99.90;;;;;;4156674;28;20453;-62
2024/03/08 01:46:24;;;;;;;23.10;13.95;;;4.50;99.90;;;;;;4153793;28;20041;-62
2024/03/08 01:48:26;;;;;;;22.63;13.75;;;4.50;99.90;;;;;;4155031;28;20042;-62
2024/03/08 01:50:27;;;;;;;23.75;14.60;;;4.40;99.90;;;;;;4155045;28;20049;-62
2024/03/08 01:52:31;;;;;;;24.77;15.32;;;4.40;99.90;;;;;;4153080;28;20037;-62
2024/03/08 01:54:32;;;;;;;25.13;14.13;;;4.30;99.90;;;;;;4158114;28;20049;-62
2024/03/08 01:56:33;;;;;;;24.13;15.40;;;4.30;99.90;;;;;;4150371;28;20081;-62
2024/03/08 01:58:33;;;;;;;24.13;14.73;;;4.20;99.90;;;;;;4160988;28;21645;-62
2024/03/08 02:00:36;;;;;;;24.90;15.13;;;4.30;99.90;;;;;;4149600;28;20483;-62
2024/03/08 02:02:37;;;;;;;26.73;15.48;;;4.20;99.90;;;;;;4154661;28;20092;-66
2024/03/08 02:04:39;;;;;;;25.17;14.93;;;4.20;99.90;;;;;;4160605;28;20030;-66
2024/03/08 02:06:39;;;;;;;29.23;16.77;;;4.10;99.90;;;;;;4151741;28;20042;-66
2024/03/08 02:08:43;;;;;;;27.75;16.38;;;4.10;99.90;;;;;;4157659;28;20537;-66
2024/03/08 02:10:44;;;;;;;29.65;17.20;;;4.10;99.90;;;;;;4152324;28;20053;-67
2024/03/08 02:12:47;;;;;;;26.25;15.75;;;4.10;99.90;;;;;;4150536;28;20038;-66
2024/03/08 02:14:47;;;;;;;27.95;16.70;;;4.20;99.90;;;;;;4157237;28;20033;-66
2024/03/08 02:16:48;;;;;;;27.42;16.95;;;4.20;99.90;;;;;;4155436;28;20055;-66
2024/03/08 02:18:48;;;;;;;23.13;14.88;;;4.20;99.90;;;;;;4155335;28;20121;-66
2024/03/08 02:20:49;;;;;;;26.83;16.27;;;4.20;99.90;;;;;;4152713;28;20119;-66
2024/03/08 02:22:50;;;;;;;26.00;16.20;;;4.20;99.90;;;;;;4156732;28;20037;-66
2024/03/08 02:24:51;;;;;;;24.55;15.95;;;4.20;99.90;;;;;;4152409;28;20479;-66
2024/03/08 02:26:53;;;;;;;28.73;16.80;;;4.20;99.90;;;;;;4156058;28;20057;-66
2024/03/08 02:28:54;;;;;;;28.27;15.50;;;4.10;99.90;;;;;;4158401;28;20124;-66
2024/03/08 02:30:55;;;;;;;27.58;15.50;;;4.10;99.90;;;;;;4151177;28;20038;-66
2024/03/08 02:32:56;;;;;;;27.27;16.20;;;4.10;99.90;;;;;;4150045;28;20065;-66
2024/03/08 02:34:59;;;;;;;26.13;15.82;;;4.10;99.90;;;;;;4150136;28;20045;-66
2024/03/08 02:37:00;;;;;;;22.42;14.63;;;4.10;99.90;;;;;;4154463;28;20083;-66
2024/03/08 02:39:05;;;;;;;28.73;15.45;;;4.10;99.90;;;;;;4151527;28;20033;-66
2024/03/08 02:41:05;;;;;;;30.25;16.08;;;4.10;99.90;;;;;;4143975;28;20107;-66
2024/03/08 02:43:06;;;;;;;28.42;16.30;;;4.10;99.90;;;;;;4144571;28;20065;-65
2024/03/08 02:45:09;;;;;;;32.45;16.67;;;4.00;99.90;;;;;;4143747;28;20045;-66
2024/03/08 02:47:10;;;;;;;25.17;14.98;;;4.10;99.90;;;;;;4144690;28;20364;-66
2024/03/08 02:49:11;;;;;;;28.45;17.40;;;4.00;99.90;;;;;;4142952;28;20114;-66
2024/03/08 02:51:13;;;;;;;30.00;16.83;;;3.90;99.90;;;;;;4141696;28;20029;-66
2024/03/08 02:53:14;;;;;;;27.98;16.88;;;4.00;99.90;;;;;;4144820;28;20033;-66
2024/03/08 02:55:17;;;;;;;30.67;16.33;;;3.90;99.90;;;;;;4153032;28;20120;-66
2024/03/08 02:57:18;;;;;;;28.95;17.70;;;3.90;99.90;;;;;;4153658;28;20034;-66
2024/03/08 02:59:19;;;;;;;32.20;18.65;;;3.90;99.90;;;;;;4153149;28;20044;-66
2024/03/08 03:01:20;;;;;;;29.17;18.00;;;3.90;99.90;;;;;;4154228;28;20035;-66
2024/03/08 03:03:21;;;;;;;32.85;19.88;;;3.90;99.90;;;;;;4148232;28;20467;-66
2024/03/08 03:05:23;;;;;;;30.52;18.92;;;3.90;99.90;;;;;;4148323;28;20109;-66
2024/03/08 03:07:23;;;;;;;31.85;19.30;;;3.90;99.90;;;;;;4156594;28;20103;-66
2024/03/08 03:09:27;;;;;;;30.75;19.15;;;3.90;99.90;;;;;;4155654;28;20478;-66
2024/03/08 03:11:28;;;;;;;29.20;18.35;;;3.90;99.90;;;;;;4147686;28;20189;-66
2024/03/08 03:13:29;;;;;;;33.17;19.60;;;3.90;99.90;;;;;;4148457;28;20045;-58
2024/03/08 03:15:30;;;;;;;29.95;17.80;;;3.90;99.90;;;;;;4144416;28;20237;-58
2024/03/08 03:17:30;;;;;;;32.83;19.30;;;3.80;99.90;;;;;;4147292;28;20419;-58
2024/03/08 03:19:31;;;;;;;29.25;18.10;;;3.90;99.90;;;;;;4151626;28;20041;-57
2024/03/08 03:21:31;;;;;;;26.83;16.70;;;3.90;99.90;;;;;;4153566;28;20048;-58
2024/03/08 03:23:33;;;;;;;30.23;18.63;;;3.90;99.90;;;;;;4154997;28;20057;-57
2024/03/08 03:25:35;;;;;;;30.20;17.83;;;3.80;99.90;;;;;;4154155;28;20488;-58
2024/03/08 03:27:36;;;;;;;28.65;17.52;;;3.80;99.90;;;;;;4150623;28;20072;-62
2024/03/08 03:29:39;;;;;;;29.30;17.42;;;3.80;99.90;;;;;;4153494;28;20083;-59
2024/03/08 03:31:40;;;;;;;33.15;17.92;;;3.80;99.90;;;;;;4154705;28;20043;-58
2024/03/08 03:33:41;;;;;;;28.25;17.10;;;3.70;99.90;;;;;;4148624;28;20764;-58
2024/03/08 03:35:42;;;;;;;32.85;19.77;;;3.80;99.90;;;;;;4151548;28;20037;-57
2024/03/08 03:37:50;;;;;;;32.38;19.95;;;3.70;99.90;;;;;;4152140;28;20395;-58
2024/03/08 03:39:53;;;;;;;31.75;19.35;;;3.70;99.90;;;;;;4153337;28;20052;-57
2024/03/08 03:41:53;;;;;;;27.88;17.40;;;3.60;99.90;;;;;;4156513;28;20425;-58
2024/03/08 03:43:54;;;;;;;33.15;19.23;;;3.70;99.90;;;;;;4147585;28;20096;-58
2024/03/08 03:45:55;;;;;;;30.20;18.73;;;3.60;99.90;;;;;;4151111;28;20502;-57
2024/03/08 03:47:56;;;;;;;28.73;19.02;;;3.60;99.90;;;;;;4151297;28;20544;-57
2024/03/08 03:50:01;;;;;;;34.42;20.58;;;3.60;99.90;;;;;;4153566;28;20053;-59
2024/03/08 03:52:04;;;;;;;31.65;19.20;;;3.60;99.90;;;;;;4129990;28;20431;-59
2024/03/08 03:54:05;;;;;;;32.70;19.55;;;3.60;99.90;;;;;;4127960;28;20128;-56
2024/03/08 03:56:06;;;;;;;37.88;19.63;;;3.60;99.90;;;;;;4155901;28;20961;-58
2024/03/08 03:58:09;;;;;;;33.50;18.63;;;3.60;99.90;;;;;;4158375;28;20120;-58
2024/03/08 04:00:10;;;;;;;30.20;18.83;;;3.60;99.90;;;;;;4151636;28;20668;-59
2024/03/08 04:02:11;;;;;;;29.52;18.50;;;3.60;99.90;;;;;;4152148;28;20044;-58
2024/03/08 04:04:12;;;;;;;34.45;19.55;;;3.60;99.90;;;;;;4153735;28;20037;-58
2024/03/08 04:06:14;;;;;;;33.10;19.77;;;3.50;99.90;;;;;;4150987;28;20429;-58
2024/03/08 04:08:14;;;;;;;33.43;19.70;;;3.50;99.90;;;;;;4157077;28;20037;-58
2024/03/08 04:10:15;;;;;;;32.22;19.38;;;3.50;99.90;;;;;;4150618;28;20053;-58
2024/03/08 04:12:15;;;;;;;35.40;19.67;;;3.50;99.90;;;;;;4154644;28;20490;-59
2024/03/08 04:14:16;;;;;;;31.30;19.20;;;3.50;99.90;;;;;;4144608;28;20038;-60
2024/03/08 04:16:18;;;;;;;30.80;18.83;;;3.50;99.90;;;;;;4142798;28;20034;-59
2024/03/08 04:18:19;;;;;;;29.45;18.30;;;3.50;99.90;;;;;;4152601;28;20061;-58
2024/03/08 04:20:21;;;;;;;27.80;17.60;;;3.50;99.90;;;;;;4148591;28;20034;-59
2024/03/08 04:22:21;;;;;;;28.87;17.20;;;3.50;99.90;;;;;;4153815;28;20406;-67
2024/03/08 04:24:22;;;;;;;30.60;18.98;;;3.50;99.90;;;;;;4147684;28;20033;-66
2024/03/08 04:26:23;;;;;;;32.97;18.52;;;3.50;99.90;;;;;;4149427;28;20044;-65
2024/03/08 04:28:23;;;;;;;30.45;18.48;;;3.50;99.90;;;;;;4151476;28;20068;-65
2024/03/08 04:30:24;;;;;;;29.95;18.95;;;3.60;99.90;;;;;;4152026;28;20046;-65
2024/03/08 04:32:24;;;;;;;29.27;18.00;;;3.60;99.90;;;;;;4149456;28;20559;-65
2024/03/08 04:34:25;;;;;;;29.23;17.83;;;3.60;99.90;;;;;;4153315;28;20057;-65
2024/03/08 04:36:26;;;;;;;34.10;20.17;;;3.70;99.90;;;;;;4151330;28;20418;-65
2024/03/08 04:38:26;;;;;;;28.75;18.15;;;3.70;99.90;;;;;;4156463;28;20068;-65
2024/03/08 04:40:27;;;;;;;31.65;18.20;;;3.60;99.90;;;;;;4148867;28;20060;-65
2024/03/08 04:42:29;;;;;;;32.38;21.05;;;3.60;99.90;;;;;;4154704;28;20470;-65
2024/03/08 04:44:31;;;;;;;34.13;20.90;;;3.60;99.90;;;;;;4147647;28;20044;-66
2024/03/08 04:46:32;;;;;;;36.72;20.17;;;3.60;99.90;;;;;;4148544;28;20467;-65
2024/03/08 04:48:32;;;;;;;36.85;20.88;;;3.60;99.90;;;;;;4151366;28;20029;-65
2024/03/08 04:50:34;;;;;;;34.58;20.45;;;3.50;99.90;;;;;;4144699;28;20528;-65
2024/03/08 04:52:35;;;;;;;33.42;20.00;;;3.50;99.90;;;;;;4148997;28;20069;-65
2024/03/08 04:54:36;;;;;;;30.02;18.67;;;3.50;99.90;;;;;;4151588;28;20038;-65
2024/03/08 04:56:36;;;;;;;31.27;19.80;;;3.50;99.90;;;;;;4146300;28;20058;-66
2024/03/08 04:58:37;;;;;;;36.75;20.27;;;3.50;99.90;;;;;;4149414;28;20042;-66
2024/03/08 05:00:37;;;;;;;32.53;18.92;;;3.50;99.90;;;;;;4142255;28;20042;-65
2024/03/08 05:02:38;;;;;;;29.75;18.60;;;3.50;99.90;;;;;;4150113;28;20037;-65
2024/03/08 05:04:39;;;;;;;29.45;17.75;;;3.50;99.90;;;;;;4148907;28;20029;-65
2024/03/08 05:06:40;;;;;;;32.13;19.05;;;3.60;99.90;;;;;;4150534;28;20474;-65
2024/03/08 05:08:41;;;;;;;31.25;18.88;;;3.60;99.90;;;;;;4153308;28;20087;-65
2024/03/08 05:10:41;;;;;;;31.40;18.98;;;3.50;99.90;;;;;;4153270;28;20521;-66
2024/03/08 05:12:43;;;;;;;31.83;19.10;;;3.50;99.90;;;;;;4154828;28;20108;-65
2024/03/08 05:14:44;;;;;;;32.50;19.25;;;3.50;99.90;;;;;;4149263;28;20501;-65
2024/03/08 05:16:48;;;;;;;37.83;20.73;;;3.50;99.90;;;;;;4158156;28;20034;-65
2024/03/08 05:18:49;;;;;;;32.28;19.33;;;3.50;99.90;;;;;;4156729;28;20042;-65
2024/03/08 05:20:50;;;;;;;35.70;20.70;;;3.50;99.90;;;;;;4153218;28;20509;-67
2024/03/08 05:22:51;;;;;;;34.80;19.60;;;3.40;99.90;;;;;;4159987;28;20056;-65
2024/03/08 05:24:52;;;;;;;35.95;19.95;;;3.50;99.90;;;;;;4160158;28;20041;-65
2024/03/08 05:26:52;;;;;;;38.00;21.35;;;3.50;99.90;;;;;;4152934;28;20029;-66
2024/03/08 05:28:53;;;;;;;33.17;17.90;;;3.40;99.90;;;;;;4153745;28;20041;-65
2024/03/08 05:30:56;;;;;;;33.47;19.30;;;3.50;99.90;;;;;;4149001;28;20409;-65
2024/03/08 05:32:57;;;;;;;31.80;19.35;;;3.40;99.90;;;;;;4155038;28;20052;-66
2024/03/08 05:34:57;;;;;;;31.73;18.88;;;3.30;99.90;;;;;;4154098;28;20038;-66
2024/03/08 05:37:00;;;;;;;34.30;20.48;;;3.40;99.90;;;;;;4151146;28;20050;-67
2024/03/08 05:39:00;;;;;;;37.05;21.20;;;3.30;99.90;;;;;;4153683;28;20393;-66
2024/03/08 05:41:01;;;;;;;36.55;20.27;;;3.20;99.90;;;;;;4158086;28;20044;-66
2024/03/08 05:43:01;;;;;;;35.80;20.00;;;3.30;99.90;;;;;;4156433;28;20103;-66
2024/03/08 05:45:06;;;;;;;34.42;20.58;;;3.30;99.90;;;;;;4149081;28;20033;-66
2024/03/08 05:47:06;;;;;;;32.90;19.13;;;3.30;99.90;;;;;;4156624;28;20041;-66
2024/03/08 05:49:09;;;;;;;34.65;20.40;;;3.30;99.90;;;;;;4156442;28;20116;-65
2024/03/08 05:51:10;;;;;;;39.35;22.15;;;3.30;99.90;;;;;;4155328;28;20112;-65
2024/03/08 05:53:11;;;;;;;35.92;20.95;;;3.20;99.90;;;;;;4147923;28;20489;-66
2024/03/08 05:55:14;;;;;;;37.85;21.60;;;3.30;99.90;;;;;;4153346;28;20041;-68
2024/03/08 05:57:14;;;;;;;34.97;20.80;;;3.20;99.90;;;;;;4144958;28;20127;-66
2024/03/08 05:59:15;;;;;;;38.83;19.38;;;3.30;99.90;;;;;;4157198;28;20168;-66
2024/03/08 06:01:16;;;;;;;36.47;20.65;;;3.20;99.90;;;;;;4151482;28;20061;-66
2024/03/08 06:03:16;;;;;;;37.83;20.83;;;3.20;99.90;;;;;;4157404;28;20033;-66
2024/03/08 06:05:17;;;;;;;37.78;20.48;;;3.20;99.90;;;;;;4153803;28;20121;-66
2024/03/08 06:07:18;;;;;;;33.58;19.48;;;3.20;99.90;;;;;;4153842;28;20107;-63
2024/03/08 06:09:22;;;;;;;33.80;19.45;;;3.30;99.90;;;;;;4154043;28;20406;-63
2024/03/08 06:11:23;;;;;;;35.63;21.00;;;3.20;99.90;;;;;;4149177;28;20116;-64
2024/03/08 06:13:24;;;;;;;33.50;19.38;;;3.20;99.90;;;;;;4158647;28;20379;-63
2024/03/08 06:15:24;;;;;;;37.30;21.80;;;3.20;99.90;;;;;;4148846;28;20026;-63
2024/03/08 06:17:25;;;;;;;41.72;22.08;;;3.20;99.90;;;;;;4156168;28;20049;-63
2024/03/08 06:19:26;;;;;;;36.55;20.52;;;3.10;99.90;;;;;;4155835;28;20134;-63
2024/03/08 06:21:27;;;;;;;37.28;21.90;;;3.10;99.90;;;;;;4155787;28;20033;-63
2024/03/08 06:23:28;;;;;;;35.28;20.75;;;3.10;99.90;;;;;;4138185;28;20176;-63
2024/03/08 06:25:29;;;;;;;42.55;20.70;;;3.10;99.90;;;;;;4141808;28;20038;-64
2024/03/08 06:27:33;;;;;;;32.67;20.33;;;3.10;99.90;;;;;;4144151;28;20495;-63
2024/03/08 06:29:34;;;;;;;36.90;22.45;;;3.10;99.90;;;;;;4149746;28;20466;-63
2024/03/08 06:31:38;;;;;;;38.08;21.48;;;3.10;99.90;;;;;;4148679;28;20069;-63
2024/03/08 06:33:39;;;;;;;35.22;20.60;;;3.10;99.90;;;;;;4142102;28;20030;-63
2024/03/08 06:35:39;;;;;;;35.20;21.13;;;3.10;99.90;;;;;;4153720;28;20509;-63
2024/03/08 06:37:42;;;;;;;36.33;21.48;;;3.10;99.90;;;;;;4156297;28;20124;-64
2024/03/08 06:39:42;;;;;;;36.90;20.85;;;3.10;99.90;;;;;;4155898;28;20049;-63
2024/03/08 06:41:44;;;;;;;37.00;21.15;;;3.10;99.90;;;;;;4143074;28;20038;-63
2024/03/08 06:43:51;;;;;;;40.55;22.45;;;3.10;99.90;;;;;;4155438;28;20100;-57
2024/03/08 06:45:52;;;;;;;38.70;21.80;;;3.10;99.90;;;;;;4154953;28;20398;-57
2024/03/08 06:47:54;;;;;;;36.97;21.25;;;3.20;99.90;;;;;;4156628;28;20049;-56
2024/03/08 06:49:55;;;;;;;40.95;21.92;;;3.20;99.90;;;;;;4153667;28;20041;-56
2024/03/08 06:51:56;;;;;;;37.08;21.85;;;3.20;99.90;;;;;;4155595;28;20041;-57
2024/03/08 06:53:57;;;;;;;39.88;22.80;;;3.20;99.90;;;;;;4158364;28;20084;-56
2024/03/08 06:55:58;;;;;;;38.80;22.92;;;3.20;99.90;;;;;;4154660;28;20048;-58
2024/03/08 06:57:59;;;;;;;36.92;22.38;;;3.20;99.90;;;;;;4142274;28;20041;-57
2024/03/08 06:59:59;;;;;;;37.10;22.55;;;3.30;99.90;;;;;;4152444;28;20049;-57
2024/03/08 07:02:00;;;;;;;38.78;23.10;;;3.50;99.90;;;;;;4155200;28;20038;-57
2024/03/08 07:04:05;;;;;;;38.15;21.80;;;3.90;99.90;;;;;;4154780;28;20042;-58
2024/03/08 07:06:07;;;;;;;44.72;22.13;;;4.20;99.90;;;;;;4153258;28;20061;-58
2024/03/08 07:08:08;;;;;;;38.92;21.67;;;4.50;99.90;;;;;;4158973;28;20037;-58
2024/03/08 07:10:10;;;;;;;36.25;21.27;;;4.80;99.90;;;;;;4152098;28;20049;-59
2024/03/08 07:12:13;;;;;;;39.28;22.92;;;5.10;99.90;;;;;;4153521;28;20076;-57
2024/03/08 07:14:15;;;;;;;38.65;22.70;;;5.10;99.90;;;;;;4153837;28;20452;-57
2024/03/08 07:16:15;;;;;;;40.95;21.75;;;5.50;99.90;;;;;;4153577;28;20045;-57
2024/03/08 07:18:16;;;;;;;36.72;22.20;;;5.70;99.90;;;;;;4156173;28;20041;-57
2024/03/08 07:20:18;;;;;;;36.80;21.13;;;5.90;99.90;;;;;;4154099;28;20490;-58
2024/03/08 07:22:19;;;;;;;35.70;20.75;;;6.20;99.90;;;;;;4154231;28;20253;-58
2024/03/08 07:26:39;;;;;;;39.28;22.55;;;6.80;99.90;;;;;;4133463;28;20045;-59
2024/03/08 07:28:40;;;;;;;34.47;21.15;;;6.50;99.90;;;;;;4137414;28;20410;-58
2024/03/08 07:32:44;;;;;;;35.47;20.25;;;6.90;99.90;;;;;;4139117;28;20476;-56
2024/03/08 07:34:44;;;;;;;36.33;21.45;;;7.20;99.90;;;;;;4139653;28;20035;-57
2024/03/08 07:36:45;;;;;;;32.17;19.75;;;7.40;99.90;;;;;;4138015;28;20030;-58
2024/03/08 07:38:46;;;;;;;32.47;20.02;;;7.40;99.90;;;;;;4138267;28;20133;-56
2024/03/08 07:40:47;;;;;;;35.75;19.17;;;7.30;99.90;;;;;;4137590;28;20050;-57
2024/03/08 07:42:49;;;;;;;35.15;20.65;;;7.70;99.90;;;;;;4138685;28;20410;-56
2024/03/08 07:44:50;;;;;;;34.03;20.73;;;7.60;99.90;;;;;;4140052;28;20751;-57
2024/03/08 07:46:50;;;;;;;32.90;20.08;;;7.70;99.90;;;;;;4136916;28;20120;-57
2024/03/08 07:48:51;;;;;;;28.45;18.13;;;7.90;99.90;;;;;;4135421;28;20091;-58
2024/03/08 07:50:52;;;;;;;31.73;19.63;;;8.30;99.90;;;;;;4129038;28;20105;-58
2024/03/08 07:52:52;;;;;;;29.52;19.10;;;8.40;99.90;;;;;;4150121;28;20065;-71
2024/03/08 07:54:54;;;;;;;29.33;19.23;;;8.40;99.90;;;;;;4156691;28;20233;-71
2024/03/08 07:56:55;;;;;;;29.27;18.67;;;8.60;99.90;;;;;;4150831;28;20477;-71
2024/03/08 07:58:55;;;;;;;33.35;19.38;;;8.90;99.90;;;;;;4154900;28;20030;-71
2024/03/08 08:00:56;;;;;;;31.30;19.17;;;9.00;99.90;;;;;;4153234;28;20417;-71
2024/03/08 08:02:57;;;;;;;37.20;18.98;;;9.10;99.90;;;;;;4152628;28;20107;-71
2024/03/08 08:04:59;;;;;;;30.20;17.92;;;8.90;99.90;;;;;;4154614;28;20041;-70
2024/03/08 08:06:59;;;;;;;29.83;18.13;;;8.80;99.90;;;;;;4151360;28;20545;-71
2024/03/08 08:09:00;;;;;;;33.10;17.50;;;8.90;99.90;;;;;;4156205;28;20042;-71
2024/03/08 08:11:02;;;;;;;28.70;17.10;;;8.70;99.90;;;;;;4150305;28;20509;-70
2024/03/08 08:13:06;;;;;;;26.08;17.42;;;8.90;99.90;;;;;;4156468;28;20038;-70
2024/03/08 08:15:07;;;;;;;28.90;18.48;;;8.90;99.90;;;;;;4155996;28;20030;-72
2024/03/08 08:17:08;;;;;;;25.50;17.25;;;8.90;99.90;;;;;;4156174;28;20196;-70
2024/03/08 08:19:09;;;;;;;33.25;18.65;;;8.90;99.90;;;;;;4153877;28;20049;-70
2024/03/08 08:21:10;;;;;;;25.42;16.35;;;9.10;99.90;;;;;;4153055;28;20032;-69
2024/03/08 08:23:12;;;;;;;26.83;17.77;;;9.30;99.90;;;;;;4153112;28;20133;-69
2024/03/08 08:25:13;;;;;;;27.58;16.75;;;9.20;99.90;;;;;;4154032;28;20417;-70
2024/03/08 08:27:14;;;;;;;23.55;16.02;;;9.20;99.90;;;;;;4152019;28;20375;-70
2024/03/08 08:29:15;;;;;;;28.95;17.58;;;9.40;99.90;;;;;;4151629;28;20490;-70
2024/03/08 08:31:15;;;;;;;26.73;17.08;;;9.50;99.90;;;;;;4153391;28;20121;-70
2024/03/08 08:33:16;;;;;;;26.08;17.60;;;9.50;99.90;;;;;;4152780;28;20045;-70
2024/03/08 08:35:19;;;;;;;26.48;16.83;;;9.50;99.90;;;;;;4143755;28;20046;-71
2024/03/08 08:37:20;;;;;;;24.02;16.10;;;9.40;99.90;;;;;;4139364;28;20113;-70
2024/03/08 08:39:22;;;;;;;26.95;17.55;;;9.60;99.90;;;;;;4138764;28;20069;-70
2024/03/08 08:41:23;;;;;;;26.40;16.33;;;9.60;99.90;;;;;;4136799;28;20050;-70
2024/03/08 08:43:25;;;;;;;29.20;17.45;;;9.60;99.90;;;;;;4137643;28;20092;-70
2024/03/08 08:45:27;;;;;;;26.77;16.75;;;9.50;99.90;;;;;;4137377;28;20049;-70
2024/03/08 08:47:28;;;;;;;25.38;16.45;;;9.40;99.90;;;;;;4137577;28;20034;-70
2024/03/08 08:49:28;;;;;;;26.73;16.05;;;9.50;99.90;;;;;;4154915;28;20061;-70
2024/03/08 08:51:29;;;;;;;25.95;16.50;;;9.60;99.90;;;;;;4156875;28;20466;-69
2024/03/08 08:53:29;;;;;;;26.40;17.30;;;9.70;99.90;;;;;;4158467;28;20045;-70
2024/03/08 08:55:30;;;;;;;25.52;16.60;;;9.60;99.90;;;;;;4158255;28;20042;-70
2024/03/08 08:57:32;;;;;;;28.63;17.60;;;9.60;99.90;;;;;;4157659;28;20045;-70
2024/03/08 08:59:35;;;;;;;26.45;16.00;;;9.50;99.90;;;;;;4155764;28;20049;-71
2024/03/08 09:01:36;;;;;;;28.70;18.40;;;9.60;99.90;;;;;;4152176;28;20533;-69
2024/03/08 09:03:37;;;;;;;31.33;18.88;;;9.50;99.90;;;;;;4156648;28;20044;-63
2024/03/08 09:05:37;;;;;;;30.63;18.52;;;9.40;99.90;;;;;;4157291;28;20064;-64
2024/03/08 09:07:38;;;;;;;27.75;16.17;;;9.30;99.90;;;;;;4156961;28;20053;-64
2024/03/08 09:09:38;;;;;;;27.33;17.17;;;9.40;99.90;;;;;;4156945;28;20103;-64
2024/03/08 09:11:41;;;;;;;25.13;15.95;;;9.40;99.90;;;;;;4149666;28;20482;-64
2024/03/08 09:13:44;;;;;;;;;;;9.50;99.90;;;;;;4154342;28;20046;-64
2024/03/08 09:15:45;;;;;;;25.63;16.70;;;9.30;99.90;;;;;;4153985;28;19939;-64
2024/03/08 09:17:46;;;;;;;27.48;16.88;;;9.50;99.90;;;;;;4157978;28;20053;-64
2024/03/08 09:19:49;;;;;;;31.08;17.45;;;9.60;99.90;;;;;;4156488;28;20060;-64
2024/03/08 09:21:51;;;;;;;31.27;17.33;;;9.50;99.90;;;;;;4156643;28;20033;-64
2024/03/08 09:23:51;;;;;;;29.30;17.52;;;9.40;99.90;;;;;;4155953;28;20500;-64
2024/03/08 09:25:52;;;;;;;27.70;17.52;;;9.50;99.90;;;;;;4156438;28;20064;-64
2024/03/08 09:27:53;;;;;;;27.90;16.25;;;9.60;99.90;;;;;;4156072;28;20048;-64
2024/03/08 09:29:53;;;;;;;27.15;16.63;;;9.70;99.90;;;;;;4157544;28;20398;-64
2024/03/08 09:31:54;;;;;;;28.83;16.75;;;9.90;99.90;;;;;;4158829;28;20045;-64
2024/03/08 09:33:55;;;;;;;27.85;16.60;;;9.90;99.90;;;;;;4157350;28;21169;-64
2024/03/08 09:35:57;;;;;;;26.67;16.88;;;10.00;99.90;;;;;;4153485;28;20042;-64
2024/03/08 09:37:58;;;;;;;30.13;18.00;;;9.80;99.90;;;;;;4157541;28;20069;-64
2024/03/08 09:39:59;;;;;;;30.30;16.60;;;9.90;99.90;;;;;;4156074;28;20095;-64
2024/03/08 09:42:00;;;;;;;29.10;15.85;;;10.00;99.90;;;;;;4155164;28;20421;-64
2024/03/08 09:44:01;;;;;;;29.77;16.00;;;10.10;99.90;;;;;;4155386;28;20058;-64
2024/03/08 09:46:04;;;;;;;23.77;14.63;;;10.10;99.90;;;;;;4146588;28;20722;-63
2024/03/08 09:48:05;;;;;;;26.63;16.02;;;10.20;99.90;;;;;;4157065;28;20089;-64
2024/03/08 09:50:12;;;;;;;28.23;16.20;;;10.20;99.90;;;;;;4155471;28;20030;-64
2024/03/08 09:52:14;;;;;;;25.45;15.55;;;10.30;99.90;;;;;;4155520;28;20136;-64
2024/03/08 09:54:16;;;;;;;26.33;16.38;;;10.30;99.90;;;;;;4155695;28;20041;-64
2024/03/08 09:56:17;;;;;;;;;;;10.50;99.90;;;;;;4150744;28;20339;-64
2024/03/08 09:58:36;;;;;;;27.00;15.18;;;10.50;99.90;;;;;;4157325;28;20361;-64
2024/03/08 10:00:37;;;;;;;27.25;16.45;;;10.50;99.90;;;;;;4152895;28;20037;-64
2024/03/08 10:02:37;;;;;;;27.55;15.98;;;10.30;99.90;;;;;;4157517;28;20084;-64
2024/03/08 10:04:42;;;;;;;26.10;16.67;;;10.20;99.90;;;;;;4155884;28;20030;-64
2024/03/08 10:06:43;;;;;;;35.38;18.75;;;10.40;99.90;;;;;;4150808;28;20053;-64
2024/03/08 10:08:45;;;;;;;28.80;18.02;;;10.00;99.90;;;;;;4156216;28;20033;-63
2024/03/08 10:10:46;;;;;;;26.85;16.33;;;10.00;99.90;;;;;;4153697;28;20517;-63
2024/03/08 10:12:46;;;;;;;29.40;17.95;;;10.10;99.90;;;;;;4157581;28;20049;-56
2024/03/08 10:14:47;;;;;;;31.95;19.35;;;10.00;99.90;;;;;;4154214;28;20518;-58
2024/03/08 10:16:47;;;;;;;28.00;17.75;;;10.00;99.90;;;;;;4150893;28;20065;-57
2024/03/08 10:18:48;;;;;;;29.52;17.67;;;10.10;99.90;;;;;;4154727;28;20247;-57
2024/03/08 10:21:09;;;;;;;27.88;17.20;;;9.90;99.90;;;;;;4154914;28;20049;-57
2024/03/08 10:23:10;;;;;;;31.02;17.33;;;10.00;99.90;;;;;;4153944;28;20041;-57
2024/03/08 10:25:11;;;;;;;29.77;17.10;;;10.20;99.90;;;;;;4153289;28;20037;-59
2024/03/08 10:27:12;;;;;;;26.00;15.75;;;10.20;99.90;;;;;;4160640;28;20541;-55
2024/03/08 10:29:15;;;;;;;32.13;17.42;;;10.30;99.90;;;;;;4139555;28;20080;-57